createdAt,value
2017-07-15T00:01:54.453Z,96968.20
2017-07-15T00:04:20.377Z,96966.58
2017-07-15T00:06:46.214Z,96961.03
2017-07-15T00:09:12.100Z,96966.83
2017-07-15T00:11:38.107Z,96963.23
2017-07-15T00:14:03.944Z,96965.75
2017-07-15T00:16:30.397Z,96958.84
2017-07-15T00:18:56.305Z,96959.23
2017-07-15T00:21:22.235Z,96958.42
2017-07-15T00:23:48.152Z,96961.02
2017-07-15T00:26:13.988Z,96964.62
2017-07-15T00:28:39.912Z,96961.25
2017-07-15T00:31:05.808Z,96966.58
2017-07-15T00:33:31.657Z,96968.84
2017-07-15T00:35:57.564Z,96967.03
2017-07-15T00:38:24.280Z,96970.45
2017-07-15T00:40:50.165Z,96957.40
2017-07-15T00:43:16.007Z,96971.07
2017-07-15T00:45:41.845Z,96969.28
2017-07-15T00:48:07.872Z,96977.89
2017-07-15T00:50:33.777Z,96980.97
2017-07-15T00:52:59.732Z,96979.59
2017-07-15T00:55:25.618Z,96979.33
2017-07-15T00:57:51.441Z,96981.88
2017-07-15T01:00:17.329Z,96974.19
2017-07-15T01:02:43.157Z,96982.70
2017-07-15T01:05:09.024Z,96981.23
2017-07-15T01:07:34.920Z,96982.51
2017-07-15T01:10:00.755Z,96980.87
2017-07-15T01:12:26.640Z,96977.20
2017-07-15T01:14:52.483Z,96982.67
2017-07-15T01:17:18.401Z,96980.64
2017-07-15T01:19:44.401Z,96949.27
2017-07-15T01:22:10.244Z,96989.98
2017-07-15T01:24:36.127Z,96969.28
2017-07-15T01:27:01.954Z,96981.94
2017-07-15T01:29:27.796Z,96982.91
2017-07-15T01:31:53.743Z,96981.55
2017-07-15T01:34:19.582Z,96994.68
2017-07-15T01:36:45.451Z,96993.75
2017-07-15T01:39:11.385Z,96989.77
2017-07-15T01:41:37.224Z,96985.90
2017-07-15T01:44:03.109Z,96917.99
2017-07-15T01:46:29.032Z,96978.48
2017-07-15T01:48:54.872Z,96986.45
2017-07-15T01:51:20.814Z,96987.02
2017-07-15T01:53:46.718Z,96991.57
2017-07-15T01:56:12.599Z,96997.58
2017-07-15T01:58:38.544Z,96998.80
2017-07-15T02:01:04.503Z,96998.93
2017-07-15T02:03:30.382Z,96998.96
2017-07-15T02:05:56.312Z,96972.47
2017-07-15T02:08:22.254Z,97002.81
2017-07-15T02:10:48.076Z,96981.42
2017-07-15T02:13:13.892Z,96986.68
2017-07-15T02:15:39.814Z,96997.42
2017-07-15T02:18:05.807Z,96998.83
2017-07-15T02:20:31.724Z,97000.98
2017-07-15T02:22:57.583Z,97002.75
2017-07-15T02:25:23.458Z,97005.23
2017-07-15T02:27:49.499Z,97004.06
2017-07-15T02:30:15.458Z,97012.02
2017-07-15T02:32:41.287Z,97008.90
2017-07-15T02:35:08.101Z,97017.31
2017-07-15T02:37:33.970Z,97012.09
2017-07-15T02:39:59.829Z,97019.27
2017-07-15T02:42:25.763Z,97018.55
2017-07-15T02:44:51.618Z,97020.41
2017-07-15T02:47:17.677Z,97019.27
2017-07-15T02:49:43.626Z,97001.62
2017-07-15T02:52:09.450Z,97021.73
2017-07-15T02:54:35.320Z,97025.81
2017-07-15T02:57:01.167Z,97023.61
2017-07-15T02:59:27.151Z,97016.25
2017-07-15T03:01:53.025Z,97013.87
2017-07-15T03:04:18.901Z,97008.05
2017-07-15T03:06:44.765Z,97016.89
2017-07-15T03:09:10.613Z,97023.44
2017-07-15T03:11:36.482Z,97026.13
2017-07-15T03:14:02.397Z,97032.97
2017-07-15T03:16:28.240Z,97008.92
2017-07-15T03:18:54.165Z,97042.03
2017-07-15T03:21:20.060Z,97042.98
2017-07-15T03:23:45.965Z,97039.25
2017-07-15T03:26:11.805Z,97044.31
2017-07-15T03:28:37.721Z,97049.88
2017-07-15T03:31:03.681Z,97047.78
2017-07-15T03:33:29.568Z,97045.64
2017-07-15T03:35:55.440Z,97049.55
2017-07-15T03:38:21.299Z,97051.57
2017-07-15T03:40:47.212Z,97056.16
2017-07-15T03:43:14.082Z,97047.22
2017-07-15T03:45:39.895Z,97051.39
2017-07-15T03:48:05.712Z,97071.34
2017-07-15T03:50:31.565Z,97046.48
2017-07-15T03:52:57.408Z,97060.81
2017-07-15T03:55:23.423Z,97052.81
2017-07-15T03:57:49.249Z,97051.39
2017-07-15T04:00:15.238Z,97054.70
2017-07-15T04:02:41.054Z,97062.66
2017-07-15T04:05:06.859Z,97066.73
2017-07-15T04:07:32.699Z,97066.64
2017-07-15T04:09:58.531Z,97051.45
2017-07-15T04:12:24.382Z,97070.05
2017-07-15T04:14:50.183Z,97086.55
2017-07-15T04:17:15.965Z,97073.95
2017-07-15T04:19:41.824Z,97083.23
2017-07-15T04:22:07.640Z,97082.55
2017-07-15T04:24:33.457Z,97088.64
2017-07-15T04:26:59.290Z,97085.94
2017-07-15T04:29:25.246Z,97079.86
2017-07-15T04:31:51.115Z,97078.86
2017-07-15T04:34:16.929Z,97084.06
2017-07-15T04:36:42.766Z,97083.38
2017-07-15T04:39:08.570Z,97089.17
2017-07-15T04:41:34.417Z,97093.78
2017-07-15T04:44:00.325Z,97098.56
2017-07-15T04:46:26.155Z,97095.91
2017-07-15T04:48:52.006Z,97096.16
2017-07-15T04:51:17.841Z,97093.39
2017-07-15T04:53:43.648Z,97097.45
2017-07-15T04:56:09.481Z,97103.19
2017-07-15T04:58:35.313Z,97107.30
2017-07-15T05:01:01.272Z,97113.45
2017-07-15T05:03:27.197Z,97112.58
2017-07-15T05:05:53.096Z,97110.09
2017-07-15T05:08:19.008Z,97102.16
2017-07-15T05:10:44.843Z,97107.97
2017-07-15T05:13:10.666Z,97118.60
2017-07-15T05:15:36.695Z,97116.67
2017-07-15T05:18:02.746Z,97120.34
2017-07-15T05:20:28.721Z,97121.39
2017-07-15T05:23:10.539Z,97125.00
2017-07-15T05:25:36.465Z,97128.41
2017-07-15T05:28:02.325Z,97120.50
2017-07-15T05:30:28.189Z,97125.22
2017-07-15T05:32:54.002Z,97134.63
2017-07-15T05:35:19.887Z,97131.42
2017-07-15T05:37:45.827Z,97127.56
2017-07-15T05:40:11.662Z,97140.11
2017-07-15T05:42:37.491Z,97133.41
2017-07-15T05:45:03.384Z,97136.98
2017-07-15T05:47:29.313Z,97133.20
2017-07-15T05:49:55.141Z,97138.30
2017-07-15T05:52:20.962Z,97140.27
2017-07-15T05:54:46.962Z,97137.32
2017-07-15T05:57:12.763Z,97146.89
2017-07-15T05:59:38.620Z,97144.87
2017-07-15T06:02:04.662Z,97143.24
2017-07-15T06:04:30.554Z,97148.45
2017-07-15T06:06:56.467Z,97155.94
2017-07-15T06:09:22.523Z,97154.98
2017-07-15T06:11:48.435Z,97162.95
2017-07-15T06:14:14.293Z,97163.87
2017-07-15T06:16:40.181Z,97164.00
2017-07-15T06:19:06.098Z,97166.27
2017-07-15T06:21:31.942Z,97156.01
2017-07-15T06:23:57.753Z,97165.63
2017-07-15T06:26:23.538Z,97174.02
2017-07-15T06:28:49.377Z,97172.77
2017-07-15T06:31:15.187Z,97153.55
2017-07-15T06:33:41.038Z,97155.52
2017-07-15T06:36:06.863Z,97179.50
2017-07-15T06:38:32.706Z,97187.49
2017-07-15T06:40:58.507Z,97186.91
2017-07-15T06:43:24.317Z,97194.06
2017-07-15T06:45:50.213Z,97199.16
2017-07-15T06:48:16.024Z,97197.29
2017-07-15T06:50:41.983Z,97193.56
2017-07-15T06:53:07.787Z,97187.39
2017-07-15T06:55:33.697Z,97174.08
2017-07-15T06:57:59.634Z,97197.75
2017-07-15T07:00:25.490Z,97199.94
2017-07-15T07:02:51.348Z,97200.12
2017-07-15T07:05:17.342Z,97203.25
2017-07-15T07:07:43.143Z,97199.69
2017-07-15T07:10:08.985Z,97193.84
2017-07-15T07:12:34.805Z,97192.53
2017-07-15T07:15:00.676Z,97196.64
2017-07-15T07:17:33.413Z,97202.45
2017-07-15T07:19:59.261Z,97205.42
2017-07-15T07:22:25.085Z,97205.41
2017-07-15T07:24:51.045Z,97207.45
2017-07-15T07:27:16.894Z,97200.80
2017-07-15T07:29:42.711Z,97207.95
2017-07-15T07:32:08.511Z,97215.47
2017-07-15T07:34:34.329Z,97213.96
2017-07-15T07:37:00.123Z,97220.86
2017-07-15T07:39:25.966Z,97219.45
2017-07-15T07:41:51.803Z,97218.50
2017-07-15T07:44:17.609Z,97222.30
2017-07-15T07:46:43.474Z,97224.16
2017-07-15T07:49:09.286Z,97228.51
2017-07-15T07:51:35.186Z,97226.14
2017-07-15T07:54:07.993Z,97203.80
2017-07-15T07:56:33.849Z,97225.64
2017-07-15T07:58:59.689Z,97229.18
2017-07-15T08:01:25.624Z,97226.95
2017-07-15T08:03:51.481Z,97227.37
2017-07-15T08:06:17.293Z,97191.72
2017-07-15T08:08:43.135Z,97183.61
2017-07-15T08:11:08.944Z,97213.82
2017-07-15T08:13:34.809Z,97213.51
2017-07-15T08:16:00.659Z,97220.13
2017-07-15T08:18:26.582Z,97220.65
2017-07-15T08:20:52.547Z,97197.84
2017-07-15T08:23:18.399Z,97235.96
2017-07-15T08:25:44.219Z,97226.58
2017-07-15T08:28:10.052Z,97200.26
2017-07-15T08:30:35.880Z,97220.86
2017-07-15T08:33:01.811Z,97208.84
2017-07-15T08:35:27.624Z,97219.98
2017-07-15T08:37:53.531Z,97215.59
2017-07-15T08:40:19.371Z,97222.80
2017-07-15T08:42:45.190Z,97227.02
2017-07-15T08:45:11.048Z,97232.73
2017-07-15T08:47:36.916Z,97224.38
2017-07-15T08:50:02.730Z,97228.95
2017-07-15T08:52:28.635Z,97228.36
2017-07-15T08:54:54.479Z,97213.91
2017-07-15T08:57:20.357Z,97234.44
2017-07-15T08:59:46.322Z,97227.00
2017-07-15T09:02:12.180Z,97218.76
2017-07-15T09:04:38.233Z,97207.68
2017-07-15T09:07:04.042Z,97227.34
2017-07-15T09:09:29.891Z,97227.80
2017-07-15T09:11:55.810Z,97226.09
2017-07-15T09:14:21.761Z,97221.12
2017-07-15T09:16:47.653Z,97236.56
2017-07-15T09:19:13.614Z,97241.20
2017-07-15T09:21:39.479Z,97246.30
2017-07-15T09:24:05.321Z,97245.19
2017-07-15T09:26:31.170Z,97206.22
2017-07-15T09:28:56.987Z,97240.30
2017-07-15T09:31:22.847Z,97243.70
2017-07-15T09:33:48.664Z,97255.34
2017-07-15T09:36:14.503Z,97249.55
2017-07-15T09:38:40.553Z,97258.14
2017-07-15T09:41:06.353Z,97258.13
2017-07-15T09:43:32.288Z,97256.73
2017-07-15T09:45:58.199Z,97239.73
2017-07-15T09:48:24.037Z,97254.66
2017-07-15T09:50:49.951Z,97259.97
2017-07-15T09:53:15.817Z,97253.14
2017-07-15T09:55:41.670Z,97243.49
2017-07-15T09:58:08.808Z,97253.48
2017-07-15T10:00:34.711Z,97253.02
2017-07-15T10:03:00.559Z,97252.05
2017-07-15T10:05:26.571Z,97251.48
2017-07-15T10:07:52.503Z,97249.62
2017-07-15T10:10:18.419Z,97242.08
2017-07-15T10:12:44.392Z,97216.41
2017-07-15T10:15:10.246Z,97242.88
2017-07-15T10:17:36.204Z,97245.67
2017-07-15T10:20:02.046Z,97250.05
2017-07-15T10:22:27.951Z,97249.66
2017-07-15T10:24:53.974Z,97242.59
2017-07-15T10:27:19.931Z,97242.13
2017-07-15T10:29:45.749Z,97239.88
2017-07-15T10:32:11.582Z,97248.11
2017-07-15T10:34:37.444Z,97248.79
2017-07-15T10:37:03.270Z,97249.05
2017-07-15T10:39:29.198Z,97254.52
2017-07-15T10:41:55.031Z,97252.75
2017-07-15T10:44:20.860Z,97249.58
2017-07-15T10:46:46.722Z,97251.84
2017-07-15T10:49:12.730Z,97227.64
2017-07-15T10:51:38.692Z,97249.55
2017-07-15T10:54:04.574Z,97243.95
2017-07-15T10:56:30.536Z,97254.38
2017-07-15T10:58:56.442Z,97249.63
2017-07-15T11:01:22.341Z,97256.72
2017-07-15T11:03:48.810Z,97223.14
2017-07-15T11:06:14.673Z,97262.00
2017-07-15T11:08:40.494Z,97261.67
2017-07-15T11:11:06.568Z,97263.28
2017-07-15T11:13:32.466Z,97256.77
2017-07-15T11:15:58.379Z,97256.30
2017-07-15T11:18:24.250Z,97230.48
2017-07-15T11:20:50.281Z,97241.41
2017-07-15T11:23:16.116Z,97256.87
2017-07-15T11:25:41.947Z,97252.38
2017-07-15T11:28:07.808Z,97250.77
2017-07-15T11:30:33.639Z,97254.81
2017-07-15T11:32:59.547Z,97250.75
2017-07-15T11:35:25.370Z,97255.80
2017-07-15T11:37:51.201Z,97260.73
2017-07-15T11:40:17.077Z,97266.30
2017-07-15T11:42:42.993Z,97266.16
2017-07-15T11:45:08.855Z,97262.23
2017-07-15T11:47:34.682Z,97270.13
2017-07-15T11:50:00.707Z,97257.30
2017-07-15T11:52:26.551Z,97270.50
2017-07-15T11:54:52.379Z,97263.66
2017-07-15T11:57:18.224Z,97261.09
2017-07-15T11:59:44.168Z,97258.89
2017-07-15T12:02:10.208Z,97259.42
2017-07-15T12:04:36.094Z,97267.06
2017-07-15T12:07:01.931Z,97264.23
2017-07-15T12:09:27.851Z,97266.75
2017-07-15T12:11:53.757Z,97248.55
2017-07-15T12:14:19.702Z,97255.97
2017-07-15T12:16:45.608Z,97258.80
2017-07-15T12:19:11.559Z,97255.96
2017-07-15T12:21:37.442Z,97265.37
2017-07-15T12:24:03.335Z,97266.16
2017-07-15T12:26:29.165Z,97270.00
2017-07-15T12:28:54.992Z,97260.07
2017-07-15T12:31:20.963Z,97266.30
2017-07-15T12:33:46.821Z,97260.50
2017-07-15T12:36:12.681Z,97254.67
2017-07-15T12:38:38.580Z,97256.91
2017-07-15T12:41:04.429Z,97250.83
2017-07-15T12:43:30.300Z,97223.91
2017-07-15T12:45:56.277Z,97253.47
2017-07-15T12:48:22.115Z,97249.96
2017-07-15T12:50:47.990Z,97251.73
2017-07-15T12:53:14.004Z,97248.75
2017-07-15T12:55:39.885Z,97251.80
2017-07-15T12:58:06.949Z,97259.01
2017-07-15T13:00:32.893Z,97261.86
2017-07-15T13:02:58.937Z,97250.88
2017-07-15T13:05:24.937Z,97255.73
2017-07-15T13:07:50.896Z,97254.86
2017-07-15T13:10:16.734Z,97256.53
2017-07-15T13:12:43.151Z,97255.77
2017-07-15T13:15:09.028Z,97258.14
2017-07-15T13:17:35.084Z,97260.48
2017-07-15T13:20:00.916Z,97246.69
2017-07-15T13:22:26.798Z,97258.19
2017-07-15T13:24:52.753Z,97215.77
2017-07-15T13:27:18.729Z,97254.70
2017-07-15T13:29:44.761Z,97255.16
2017-07-15T13:32:10.647Z,97259.38
2017-07-15T13:34:36.518Z,97244.80
2017-07-15T13:37:02.428Z,97258.59
2017-07-15T13:39:28.433Z,97247.48
2017-07-15T13:41:54.419Z,97252.66
2017-07-15T13:44:20.254Z,97248.15
2017-07-15T13:46:46.088Z,97251.26
2017-07-15T13:49:12.018Z,97241.23
2017-07-15T13:51:37.848Z,97254.02
2017-07-15T13:54:03.665Z,97261.83
2017-07-15T13:56:29.532Z,97257.37
2017-07-15T13:58:55.383Z,97255.45
2017-07-15T14:01:21.280Z,97255.59
2017-07-15T14:03:47.129Z,97254.91
2017-07-15T14:06:13.023Z,97219.88
2017-07-15T14:08:39.421Z,97263.09
2017-07-15T14:11:05.281Z,97258.73
2017-07-15T14:13:31.353Z,97258.83
2017-07-15T14:15:57.344Z,97254.05
2017-07-15T14:18:23.223Z,97257.68
2017-07-15T14:20:49.115Z,97247.10
2017-07-15T14:23:14.987Z,97251.09
2017-07-15T14:25:40.827Z,97248.01
2017-07-15T14:28:06.689Z,97253.12
2017-07-15T14:30:32.514Z,97251.97
2017-07-15T14:32:58.536Z,97243.59
2017-07-15T14:35:24.349Z,97247.01
2017-07-15T14:37:50.243Z,97244.34
2017-07-15T14:40:16.105Z,97247.50
2017-07-15T14:42:41.918Z,97240.69
2017-07-15T14:45:07.806Z,97250.77
2017-07-15T14:47:33.628Z,97256.87
2017-07-15T14:49:59.564Z,97254.64
2017-07-15T14:52:25.421Z,97258.56
2017-07-15T14:54:51.238Z,97262.90
2017-07-15T14:57:17.107Z,97262.52
2017-07-15T14:59:43.012Z,97263.94
2017-07-15T15:02:08.915Z,97261.56
2017-07-15T15:04:34.776Z,97265.92
2017-07-15T15:07:00.660Z,97258.31
2017-07-15T15:09:26.477Z,97272.08
2017-07-15T15:11:52.436Z,97258.44
2017-07-15T15:14:18.244Z,97259.55
2017-07-15T15:16:44.059Z,97253.78
2017-07-15T15:19:09.998Z,97253.30
2017-07-15T15:21:35.836Z,97254.58
2017-07-15T15:24:01.718Z,97259.23
2017-07-15T15:26:27.773Z,97243.52
2017-07-15T15:28:53.625Z,97253.14
2017-07-15T15:31:19.496Z,97249.04
2017-07-15T15:33:45.310Z,97236.66
2017-07-15T15:36:11.233Z,97257.44
2017-07-15T15:38:37.137Z,97249.55
2017-07-15T15:41:02.992Z,97255.73
2017-07-15T15:43:28.892Z,97250.85
2017-07-15T15:45:54.805Z,97257.30
2017-07-15T15:48:20.696Z,97252.16
2017-07-15T15:50:46.523Z,97256.00
2017-07-15T15:53:12.503Z,97255.58
2017-07-15T15:55:38.370Z,97262.27
2017-07-15T15:58:05.821Z,97252.27
2017-07-15T16:00:31.804Z,97255.36
2017-07-15T16:02:57.667Z,97257.03
2017-07-15T16:05:23.620Z,97253.53
2017-07-15T16:07:49.459Z,97260.50
2017-07-15T16:10:15.320Z,97261.65
2017-07-15T16:12:41.147Z,97249.37
2017-07-15T16:15:07.074Z,97254.75
2017-07-15T16:17:32.913Z,97247.84
2017-07-15T16:19:58.807Z,97255.52
2017-07-15T16:22:24.783Z,97251.08
2017-07-15T16:24:50.682Z,97252.38
2017-07-15T16:27:16.684Z,97250.19
2017-07-15T16:29:43.008Z,97256.05
2017-07-15T16:32:08.859Z,97251.50
2017-07-15T16:34:34.729Z,97258.67
2017-07-15T16:37:00.593Z,97259.02
2017-07-15T16:39:26.517Z,97258.97
2017-07-15T16:41:52.415Z,97258.45
2017-07-15T16:44:18.314Z,97261.49
2017-07-15T16:46:44.181Z,97256.80
2017-07-15T16:49:10.003Z,97246.67
2017-07-15T16:51:36.101Z,97241.98
2017-07-15T16:54:01.931Z,97266.13
2017-07-15T16:56:27.885Z,97266.44
2017-07-15T16:58:53.763Z,97269.44
2017-07-15T17:01:19.692Z,97269.20
2017-07-15T17:03:45.537Z,97278.94
2017-07-15T17:06:11.339Z,97272.45
2017-07-15T17:08:37.201Z,97272.34
2017-07-15T17:11:03.045Z,97272.55
2017-07-15T17:13:28.968Z,97279.52
2017-07-15T17:15:54.895Z,97271.50
2017-07-15T17:18:20.821Z,97287.55
2017-07-15T17:20:46.695Z,97289.38
2017-07-15T17:23:12.577Z,97291.88
2017-07-15T17:25:38.489Z,97294.48
2017-07-15T17:28:04.313Z,97264.95
2017-07-15T17:30:30.158Z,97274.56
2017-07-15T17:32:56.055Z,97288.53
2017-07-15T17:35:22.062Z,97286.79
2017-07-15T17:37:47.968Z,97294.13
2017-07-15T17:40:13.845Z,97295.39
2017-07-15T17:42:39.673Z,97292.38
2017-07-15T17:45:05.494Z,97297.05
2017-07-15T17:47:31.447Z,97303.67
2017-07-15T17:49:57.273Z,97301.03
2017-07-15T17:52:23.156Z,97298.52
2017-07-15T17:54:49.006Z,97297.30
2017-07-15T17:57:14.957Z,97289.63
2017-07-15T17:59:40.773Z,97291.59
2017-07-15T18:02:06.629Z,97283.46
2017-07-15T18:04:32.490Z,97294.53
2017-07-15T18:06:58.329Z,97296.78
2017-07-15T18:09:24.224Z,97288.48
2017-07-15T18:11:50.102Z,97280.13
2017-07-15T18:14:15.973Z,97287.09
2017-07-15T18:16:41.942Z,97280.30
2017-07-15T18:19:07.800Z,97283.20
2017-07-15T18:21:33.780Z,97284.70
2017-07-15T18:23:59.585Z,97273.52
2017-07-15T18:26:25.390Z,97291.11
2017-07-15T18:28:51.263Z,97294.34
2017-07-15T18:31:17.090Z,97288.17
2017-07-15T18:33:42.908Z,97290.31
2017-07-15T18:36:08.791Z,97299.09
2017-07-15T18:38:34.616Z,97295.44
2017-07-15T18:41:07.318Z,97291.03
2017-07-15T18:43:33.453Z,97299.75
2017-07-15T18:45:59.312Z,97266.91
2017-07-15T18:48:25.145Z,97302.09
2017-07-15T18:50:51.007Z,97306.15
2017-07-15T18:53:16.813Z,97309.55
2017-07-15T18:55:42.662Z,97304.86
2017-07-15T18:58:09.241Z,97308.91
2017-07-15T19:00:42.157Z,97308.17
2017-07-15T19:03:08.026Z,97292.53
2017-07-15T19:05:33.847Z,97281.18
2017-07-15T19:07:59.697Z,97310.05
2017-07-15T19:10:25.545Z,97312.52
2017-07-15T19:12:51.390Z,97315.20
2017-07-15T19:15:17.388Z,97314.55
2017-07-15T19:17:43.253Z,97313.72
2017-07-15T19:20:09.128Z,97322.57
2017-07-15T19:22:35.057Z,97322.89
2017-07-15T19:25:01.445Z,97320.84
2017-07-15T19:27:27.304Z,97329.25
2017-07-15T19:29:53.246Z,97331.47
2017-07-15T19:32:19.179Z,97320.27
2017-07-15T19:34:45.985Z,97338.11
2017-07-15T19:37:11.796Z,97340.08
2017-07-15T19:39:37.667Z,97341.94
2017-07-15T19:42:03.562Z,97339.95
2017-07-15T19:44:29.459Z,97345.53
2017-07-15T19:46:55.522Z,97352.12
2017-07-15T19:49:21.537Z,97353.38
2017-07-15T19:51:47.455Z,97350.36
2017-07-15T19:54:13.388Z,97360.86
2017-07-15T19:56:39.228Z,97359.64
2017-07-15T19:59:05.269Z,97358.67
2017-07-15T20:01:31.140Z,97367.89
2017-07-15T20:03:57.099Z,97372.33
2017-07-15T20:06:22.989Z,97372.17
2017-07-15T20:08:48.901Z,97378.56
2017-07-15T20:11:14.923Z,97377.61
2017-07-15T20:13:40.902Z,97373.76
2017-07-15T20:16:06.753Z,97372.16
2017-07-15T20:18:32.692Z,97373.23
2017-07-15T20:20:58.577Z,97374.78
2017-07-15T20:23:24.619Z,97376.38
2017-07-15T20:25:50.623Z,97377.49
2017-07-15T20:28:16.452Z,97378.83
2017-07-15T20:30:42.404Z,97382.32
2017-07-15T20:33:08.303Z,97374.95
2017-07-15T20:35:34.240Z,97392.42
2017-07-15T20:38:00.099Z,97389.65
2017-07-15T20:40:25.978Z,97402.10
2017-07-15T20:42:51.972Z,97382.31
2017-07-15T20:45:17.827Z,97396.58
2017-07-15T20:47:43.680Z,97394.06
2017-07-15T20:50:09.556Z,97354.39
2017-07-15T20:52:41.424Z,97393.87
2017-07-15T20:55:07.473Z,97397.58
2017-07-15T20:57:33.403Z,97397.75
2017-07-15T20:59:59.250Z,97382.06
2017-07-15T21:02:25.123Z,97400.11
2017-07-15T21:04:50.977Z,97395.09
2017-07-15T21:07:16.898Z,97392.05
2017-07-15T21:09:42.945Z,97396.81
2017-07-15T21:12:08.795Z,97400.28
2017-07-15T21:14:34.663Z,97396.97
2017-07-15T21:17:00.524Z,97398.42
2017-07-15T21:19:26.502Z,97360.65
2017-07-15T21:21:52.363Z,97388.56
2017-07-15T21:24:18.225Z,97390.81
2017-07-15T21:26:44.109Z,97394.74
2017-07-15T21:29:10.024Z,97394.05
2017-07-15T21:31:35.956Z,97362.08
2017-07-15T21:34:01.904Z,97389.53
2017-07-15T21:36:27.777Z,97390.91
2017-07-15T21:38:53.727Z,97396.75
2017-07-15T21:41:19.613Z,97329.62
2017-07-15T21:43:45.465Z,97392.80
2017-07-15T21:46:11.363Z,97398.58
2017-07-15T21:48:37.755Z,97392.18
2017-07-15T21:51:03.660Z,97411.03
2017-07-15T21:53:29.496Z,97412.16
2017-07-15T21:55:55.381Z,97397.27
2017-07-15T21:58:21.289Z,97409.86
2017-07-15T22:00:47.181Z,97416.98
2017-07-15T22:03:13.052Z,97416.89
2017-07-15T22:05:38.953Z,97417.86
2017-07-15T22:08:04.838Z,97421.62
2017-07-15T22:10:30.673Z,97419.81
2017-07-15T22:12:56.597Z,97418.30
2017-07-15T22:15:22.485Z,97422.16
2017-07-15T22:17:48.565Z,97418.61
2017-07-15T22:20:14.872Z,97415.60
2017-07-15T22:22:40.726Z,97422.58
2017-07-15T22:25:06.592Z,97419.95
2017-07-15T22:27:32.432Z,97419.19
2017-07-15T22:29:58.343Z,97417.65
2017-07-15T22:32:24.198Z,97373.17
2017-07-15T22:34:53.871Z,97422.15
2017-07-15T22:37:19.784Z,97373.95
2017-07-15T22:39:45.625Z,97416.06
2017-07-15T22:42:11.602Z,97416.48
2017-07-15T22:44:37.672Z,97417.20
2017-07-15T22:47:03.584Z,97415.80
2017-07-15T22:49:29.499Z,97419.30
2017-07-15T22:51:55.472Z,97418.36
2017-07-15T22:54:21.332Z,97416.45
2017-07-15T22:56:47.176Z,97416.33
2017-07-15T22:59:14.769Z,97415.67
2017-07-15T23:01:40.650Z,97411.89
2017-07-15T23:04:06.553Z,97417.62
2017-07-15T23:06:32.465Z,97419.08
2017-07-15T23:08:58.300Z,97420.95
2017-07-15T23:11:24.228Z,97419.86
2017-07-15T23:13:50.101Z,97416.80
2017-07-15T23:16:15.938Z,97418.03
2017-07-15T23:18:43.793Z,97416.16
2017-07-15T23:21:09.648Z,97417.41
2017-07-15T23:23:36.220Z,97424.03
2017-07-15T23:26:02.870Z,97411.14
2017-07-15T23:28:28.743Z,97412.96
2017-07-15T23:30:54.719Z,97418.19
2017-07-15T23:33:20.570Z,97413.75
2017-07-15T23:35:46.536Z,97416.47
2017-07-15T23:38:12.426Z,97416.81
2017-07-15T23:40:38.347Z,97409.69
2017-07-15T23:43:04.184Z,97411.81
2017-07-15T23:45:30.052Z,97399.53
2017-07-15T23:47:55.922Z,97408.98
2017-07-15T23:50:21.943Z,97412.08
2017-07-15T23:52:54.840Z,97409.56
2017-07-15T23:55:20.730Z,97409.75
2017-07-15T23:57:46.668Z,97409.75
